Terminal Aerodrome Forecast
Issued by NWS

Home | Current Version | Previous Version | Graphics & Text | Print | Product List | Glossary On
Versions: 1 2 3 4 5 6 7 8 9 10 11 12 13 14 15 16 17 18 19 20 21 22 23 24 25 26
144
FTUS45 KGGW 232321
TAFGDV
TAF
KGDV 232321Z 2400/2424 03006KT 6SM -RA FEW008 OVC020
     FM240600 36007KT P6SM -SHRA OVC015
     FM240900 35006KT P6SM -SHRA OVC008
     FM241200 01007KT P6SM VCSH OVC010
     FM241500 01008KT P6SM OVC015
     FM241800 02007KT P6SM OVC020=

USA.gov is the U.S. government's official web portal to all federal, state and local government web resources and services.